Time;durP1;ratioP1;P1;durP2;ratioP2;P2;SDS_P1;SDS_P2;PMS_P1;PMS_P2;Temp;Humidity;BMP_temperature;BMP_pressure;BME280_temperature;BME280_humidity;BME280_pressure;Samples;Min_cycle;Max_cycle;Signal;HPM_P1;HPM_P2
2022/03/11 00:01:44;;;;;;;12.23;8.02;;;3.00;92.70;;;;;;5023168;28;20022;-77
2022/03/11 00:04:10;;;;;;;12.20;7.30;;;3.00;92.90;;;;;;5023783;28;20402;-77
2022/03/11 00:06:35;;;;;;;11.32;6.43;;;2.90;92.90;;;;;;5023625;28;20026;-76
2022/03/11 00:09:04;;;;;;;9.45;6.20;;;2.90;93.20;;;;;;5023167;28;20017;-76
2022/03/11 00:11:30;;;;;;;13.05;6.00;;;2.90;93.20;;;;;;5023318;28;20462;-76
2022/03/11 00:13:56;;;;;;;11.80;6.45;;;2.90;92.90;;;;;;5023151;28;20032;-76
2022/03/11 00:16:21;;;;;;;;;;;2.90;93.00;;;;;;5023845;28;20026;-76
2022/03/11 00:18:47;;;;;;;11.05;6.82;;;2.90;93.10;;;;;;5023310;28;20147;-76
2022/03/11 00:21:13;;;;;;;8.38;5.22;;;2.90;93.10;;;;;;5023704;28;20024;-76
2022/03/11 00:23:40;;;;;;;11.15;6.10;;;2.80;92.90;;;;;;5023486;28;20116;-76
2022/03/11 00:26:06;;;;;;;10.43;5.90;;;2.80;93.20;;;;;;5023249;28;20033;-76
2022/03/11 00:28:31;;;;;;;;;;;2.80;93.20;;;;;;5023682;28;20512;-76
2022/03/11 00:30:57;;;;;;;11.10;6.22;;;2.80;93.10;;;;;;5023412;28;20165;-76
2022/03/11 00:33:23;;;;;;;10.93;5.72;;;2.70;93.20;;;;;;5023697;28;20017;-76
2022/03/11 00:35:49;;;;;;;10.73;5.85;;;2.70;93.20;;;;;;5023575;28;20037;-76
2022/03/11 00:38:14;;;;;;;13.82;6.65;;;2.70;93.30;;;;;;5023153;28;20105;-76
2022/03/11 00:40:40;;;;;;;10.68;6.40;;;2.60;93.20;;;;;;5023157;28;20029;-76
2022/03/11 00:43:05;;;;;;;13.88;6.95;;;2.60;93.40;;;;;;5022261;28;20029;-76
2022/03/11 00:45:31;;;;;;;11.68;6.10;;;2.60;93.30;;;;;;5022469;28;20032;-76
2022/03/11 00:47:56;;;;;;;10.43;5.72;;;2.60;93.20;;;;;;5021726;28;20401;-76
2022/03/11 00:50:22;;;;;;;13.95;6.85;;;2.60;93.30;;;;;;5022549;28;20029;-76
2022/03/11 00:52:48;;;;;;;14.57;7.93;;;2.60;93.30;;;;;;5022006;28;20517;-76
2022/03/11 00:55:14;;;;;;;9.35;6.63;;;2.50;93.30;;;;;;5022657;28;20125;-76
2022/03/11 00:57:39;;;;;;;10.70;6.40;;;2.60;93.10;;;;;;5022006;28;20117;-76
2022/03/11 01:00:07;;;;;;;15.65;8.00;;;2.60;93.00;;;;;;5022526;28;20074;-76
2022/03/11 01:02:34;;;;;;;9.05;5.50;;;2.60;92.90;;;;;;5022377;28;20030;-76
2022/03/11 01:04:59;;;;;;;16.95;7.25;;;2.60;92.70;;;;;;5022282;28;20033;-76
2022/03/11 01:07:25;;;;;;;17.08;6.82;;;2.50;92.70;;;;;;5022675;28;20070;-76
2022/03/11 01:09:50;;;;;;;12.38;6.32;;;2.50;92.50;;;;;;5022303;28;20026;-76
2022/03/11 01:12:16;;;;;;;8.90;5.85;;;2.50;92.40;;;;;;5022664;28;20448;-76
2022/03/11 01:14:41;;;;;;;8.57;4.78;;;2.50;92.30;;;;;;5022466;28;20036;-75
2022/03/11 01:17:07;;;;;;;10.23;5.55;;;2.50;92.50;;;;;;5022724;28;20483;-75
2022/03/11 01:19:32;;;;;;;14.60;5.68;;;2.50;92.40;;;;;;5022379;28;20040;-75
2022/03/11 01:21:58;;;;;;;9.20;6.00;;;2.40;92.70;;;;;;5022046;28;20041;-75
2022/03/11 01:24:23;;;;;;;11.85;6.13;;;2.40;92.40;;;;;;5022658;28;20025;-75
2022/03/11 01:26:49;;;;;;;10.23;5.90;;;2.40;92.30;;;;;;5022030;28;20120;-75
2022/03/11 01:29:14;;;;;;;7.00;5.03;;;2.40;92.40;;;;;;5022666;28;20018;-75
2022/03/11 01:31:40;;;;;;;14.90;7.25;;;2.40;92.00;;;;;;5022402;28;20014;-75
2022/03/11 01:34:05;;;;;;;10.40;5.93;;;2.40;92.10;;;;;;5021193;28;20057;-75
2022/03/11 01:36:31;;;;;;;10.60;5.47;;;2.40;91.60;;;;;;5022124;28;20032;-75
2022/03/11 01:38:56;;;;;;;12.95;5.20;;;2.40;91.50;;;;;;5021222;28;20036;-76
2022/03/11 01:41:22;;;;;;;13.13;6.72;;;2.30;91.60;;;;;;5021289;28;20382;-76
2022/03/11 01:43:58;;;;;;;14.93;5.97;;;2.30;91.90;;;;;;5021470;28;20064;-76
2022/03/11 01:46:24;;;;;;;;;;;2.30;91.70;;;;;;5021926;28;20037;-76
2022/03/11 01:48:49;;;;;;;11.57;4.78;;;2.30;91.60;;;;;;5021023;28;20420;-75
2022/03/11 01:51:16;;;;;;;10.73;5.20;;;2.30;91.30;;;;;;5021423;28;20506;-76
2022/03/11 01:53:42;;;;;;;10.85;5.85;;;2.30;91.30;;;;;;5021581;28;20343;-75
2022/03/11 01:56:08;;;;;;;;;;;2.20;91.60;;;;;;5021960;28;20124;-75
2022/03/11 01:58:34;;;;;;;10.35;5.10;;;2.20;91.20;;;;;;5021653;28;20342;-75
2022/03/11 02:01:00;;;;;;;;;;;2.20;91.30;;;;;;5021690;28;20409;-75
2022/03/11 02:03:25;;;;;;;12.13;6.90;;;2.10;91.50;;;;;;5021616;28;19905;-75
2022/03/11 02:05:50;;;;;;;9.15;5.55;;;2.10;91.60;;;;;;5021121;28;20049;-75
2022/03/11 02:08:16;;;;;;;11.13;5.55;;;2.00;91.80;;;;;;5021002;28;20368;-75
2022/03/11 02:10:41;;;;;;;12.82;5.82;;;2.00;92.10;;;;;;5021186;28;20029;-75
2022/03/11 02:13:07;;;;;;;16.02;5.47;;;2.00;91.90;;;;;;5021365;28;20413;-75
2022/03/11 02:15:33;;;;;;;35.15;17.30;;;2.00;92.00;;;;;;5021348;28;20026;-76
2022/03/11 02:17:58;;;;;;;20.08;11.25;;;2.00;92.30;;;;;;5021129;28;20037;-76
2022/03/11 02:20:24;;;;;;;13.57;7.18;;;1.90;92.20;;;;;;5021563;28;20024;-76
2022/03/11 02:22:51;;;;;;;11.75;7.00;;;1.90;92.00;;;;;;5021092;28;20033;-76
2022/03/11 02:25:17;;;;;;;12.95;5.93;;;1.90;92.30;;;;;;5021455;28;20445;-76
2022/03/11 02:27:42;;;;;;;7.40;4.90;;;1.80;92.30;;;;;;5021273;28;20022;-76
2022/03/11 02:30:21;;;;;;;11.80;6.43;;;1.80;92.40;;;;;;5021496;28;20071;-76
2022/03/11 02:32:47;;;;;;;12.15;6.57;;;1.80;92.60;;;;;;5020224;28;20029;-76
2022/03/11 02:35:14;;;;;;;16.05;6.63;;;1.70;92.40;;;;;;5020873;28;20037;-75
2022/03/11 02:37:40;;;;;;;9.82;5.70;;;1.70;92.80;;;;;;5020305;28;20071;-76
2022/03/11 02:40:06;;;;;;;10.95;6.50;;;1.70;93.00;;;;;;5020219;28;20029;-76
2022/03/11 02:42:32;;;;;;;;;;;1.60;92.90;;;;;;5020867;28;20069;-76
2022/03/11 02:45:02;;;;;;;9.73;5.18;;;1.60;93.20;;;;;;5020205;28;19956;-76
2022/03/11 02:47:28;;;;;;;10.63;5.18;;;1.50;93.20;;;;;;5020060;28;20432;-75
2022/03/11 02:49:54;;;;;;;12.73;6.28;;;1.50;93.50;;;;;;5020436;28;20108;-75
2022/03/11 02:52:20;;;;;;;16.38;7.43;;;1.50;93.20;;;;;;5020524;28;20071;-75
2022/03/11 02:54:45;;;;;;;14.05;6.60;;;1.40;93.50;;;;;;5020284;28;20049;-75
2022/03/11 02:57:11;;;;;;;14.80;6.57;;;1.40;93.90;;;;;;5020662;28;20130;-76
2022/03/11 02:59:36;;;;;;;11.30;5.97;;;1.30;94.00;;;;;;5020423;28;20063;-76
2022/03/11 03:02:02;;;;;;;12.18;6.50;;;1.30;94.10;;;;;;5019974;28;20117;-76
2022/03/11 03:04:28;;;;;;;13.95;7.18;;;1.20;94.00;;;;;;5020520;28;20030;-76
2022/03/11 03:06:55;;;;;;;12.13;6.50;;;1.20;94.20;;;;;;5020367;28;20025;-75
2022/03/11 03:09:20;;;;;;;15.18;7.35;;;1.20;94.20;;;;;;5020693;28;20369;-75
2022/03/11 03:11:46;;;;;;;11.27;5.45;;;1.30;94.00;;;;;;5020213;28;20022;-75
2022/03/11 03:14:11;;;;;;;10.05;5.75;;;1.20;94.10;;;;;;5020972;28;20037;-75
2022/03/11 03:16:37;;;;;;;10.55;6.53;;;1.20;94.40;;;;;;5020734;28;20026;-75
2022/03/11 03:19:02;;;;;;;14.75;6.13;;;1.20;94.20;;;;;;5020283;28;20029;-75
2022/03/11 03:21:28;;;;;;;9.77;5.60;;;1.10;94.40;;;;;;5024262;28;20072;-75
2022/03/11 03:23:53;;;;;;;8.85;6.18;;;1.10;94.30;;;;;;5024143;28;20030;-75
2022/03/11 03:26:19;;;;;;;13.32;6.00;;;1.10;94.40;;;;;;5025196;28;20025;-75
2022/03/11 03:28:45;;;;;;;;;;;1.10;94.60;;;;;;5024661;28;20494;-75
2022/03/11 03:31:10;;;;;;;13.55;6.65;;;1.10;94.40;;;;;;5024152;28;19912;-75
2022/03/11 03:33:36;;;;;;;7.97;4.85;;;1.10;94.40;;;;;;5023762;28;20026;-75
2022/03/11 03:36:01;;;;;;;12.15;7.00;;;1.10;94.30;;;;;;5023644;28;20111;-75
2022/03/11 03:38:27;;;;;;;9.55;5.82;;;1.00;94.30;;;;;;5023928;28;20018;-75
2022/03/11 03:40:52;;;;;;;14.02;5.95;;;1.00;94.50;;;;;;5023719;28;20037;-75
2022/03/11 03:43:18;;;;;;;14.82;6.13;;;1.00;94.50;;;;;;5023686;28;20478;-75
2022/03/11 03:45:43;;;;;;;9.10;5.80;;;1.00;94.40;;;;;;5023879;28;20318;-75
2022/03/11 03:48:09;;;;;;;13.98;6.57;;;1.00;94.60;;;;;;5023624;28;20037;-75
2022/03/11 03:50:34;;;;;;;10.68;7.05;;;0.90;94.40;;;;;;5023933;28;20036;-75
2022/03/11 03:53:00;;;;;;;13.70;6.18;;;0.90;94.50;;;;;;5023466;28;20047;-75
2022/03/11 03:55:25;;;;;;;17.55;6.53;;;1.00;94.20;;;;;;5024203;28;20025;-75
2022/03/11 03:57:51;;;;;;;9.98;5.90;;;0.90;94.20;;;;;;5023362;28;20026;-76
2022/03/11 04:00:17;;;;;;;6.18;3.65;;;0.90;94.20;;;;;;5024005;28;20040;-75
2022/03/11 04:02:47;;;;;;;12.65;5.55;;;1.00;94.10;;;;;;5023765;28;20109;-75
2022/03/11 04:05:13;;;;;;;12.57;6.88;;;1.00;93.80;;;;;;5024102;28;20477;-75
2022/03/11 04:07:42;;;;;;;10.50;5.05;;;1.00;93.80;;;;;;5023575;28;20134;-75
2022/03/11 04:10:09;;;;;;;12.52;6.47;;;0.90;94.10;;;;;;5023660;28;20022;-75
2022/03/11 04:12:35;;;;;;;20.70;7.80;;;0.90;94.10;;;;;;5023670;28;20371;-75
2022/03/11 04:15:01;;;;;;;15.25;7.20;;;0.90;94.10;;;;;;5023685;28;20025;-76
2022/03/11 04:17:26;;;;;;;12.98;6.65;;;0.90;93.90;;;;;;5023910;28;20486;-75
2022/03/11 04:19:52;;;;;;;15.65;7.47;;;0.80;94.10;;;;;;5023453;28;20028;-76
2022/03/11 04:22:17;;;;;;;10.75;6.10;;;0.80;94.20;;;;;;5023713;28;20384;-75
2022/03/11 04:24:43;;;;;;;12.15;6.22;;;0.80;94.10;;;;;;5023657;28;20116;-75
2022/03/11 04:27:09;;;;;;;10.82;5.65;;;0.80;94.00;;;;;;5023370;28;20030;-75
2022/03/11 04:29:34;;;;;;;14.80;6.55;;;0.80;93.80;;;;;;5022960;28;20393;-75
2022/03/11 04:32:00;;;;;;;19.02;7.00;;;0.80;93.70;;;;;;5021872;28;20309;-75
2022/03/11 04:34:26;;;;;;;13.00;6.07;;;0.80;93.70;;;;;;5022708;28;20018;-76
2022/03/11 04:36:51;;;;;;;16.60;6.55;;;0.80;93.90;;;;;;5022816;28;20120;-75
2022/03/11 04:39:17;;;;;;;19.20;7.13;;;0.80;93.90;;;;;;5023374;28;20017;-75
2022/03/11 04:41:44;;;;;;;11.52;6.93;;;0.70;93.80;;;;;;5022677;28;20025;-75
2022/03/11 04:44:10;;;;;;;9.77;5.82;;;0.70;93.80;;;;;;5022653;28;20025;-75
2022/03/11 04:46:35;;;;;;;;;;;0.70;93.60;;;;;;5023308;28;20083;-75
2022/03/11 04:49:01;;;;;;;16.20;6.47;;;0.70;93.40;;;;;;5081030;22;20308;-68
2022/03/11 04:51:26;;;;;;;12.10;5.57;;;0.70;93.30;;;;;;5081875;28;20528;-68
2022/03/11 04:53:52;;;;;;;11.65;6.72;;;0.70;93.60;;;;;;5082259;28;20028;-65
2022/03/11 04:56:17;;;;;;;10.23;6.20;;;0.70;93.50;;;;;;5081920;28;20047;-65
2022/03/11 04:58:43;;;;;;;15.05;6.25;;;0.70;93.10;;;;;;5081485;28;20340;-65
2022/03/11 05:01:09;;;;;;;12.23;7.55;;;0.80;93.10;;;;;;5081080;28;20446;-66
2022/03/11 05:03:34;;;;;;;10.45;5.97;;;0.70;92.90;;;;;;5081215;28;20412;-65
2022/03/11 05:06:00;;;;;;;10.43;6.45;;;0.70;92.70;;;;;;5081352;28;20024;-66
2022/03/11 05:08:25;;;;;;;12.65;5.78;;;0.70;93.00;;;;;;5080474;28;20043;-66
2022/03/11 05:10:51;;;;;;;13.38;6.22;;;0.70;93.10;;;;;;5081175;28;20029;-66
2022/03/11 05:13:17;;;;;;;12.88;6.47;;;0.70;92.90;;;;;;5080461;28;20162;-66
2022/03/11 05:15:42;;;;;;;13.95;6.22;;;0.60;93.00;;;;;;5081119;28;20027;-66
2022/03/11 05:18:08;;;;;;;14.15;6.00;;;0.60;92.60;;;;;;5080187;28;20089;-66
2022/03/11 05:20:35;;;;;;;14.18;7.32;;;0.60;92.80;;;;;;5080769;28;20101;-66
2022/03/11 05:23:01;;;;;;;8.40;5.32;;;0.60;92.80;;;;;;5080282;28;20430;-66
2022/03/11 05:25:27;;;;;;;14.30;6.80;;;0.60;92.70;;;;;;5080448;28;20020;-66
2022/03/11 05:27:52;;;;;;;12.38;6.53;;;0.60;92.70;;;;;;5081434;28;20103;-66
2022/03/11 05:30:18;;;;;;;12.18;6.68;;;0.60;92.60;;;;;;5080891;28;20389;-66
2022/03/11 05:32:46;;;;;;;18.20;6.78;;;0.60;92.30;;;;;;5081195;28;20154;-66
2022/03/11 05:35:13;;;;;;;13.00;5.97;;;0.50;92.50;;;;;;5081316;28;20496;-66
2022/03/11 05:37:39;;;;;;;17.98;7.78;;;0.50;92.50;;;;;;5081284;28;20107;-65
2022/03/11 05:40:05;;;;;;;11.77;5.85;;;0.40;92.60;;;;;;5080864;28;20107;-66
2022/03/11 05:42:31;;;;;;;14.10;7.55;;;0.40;93.00;;;;;;5080092;28;20032;-66
2022/03/11 05:44:56;;;;;;;20.80;6.60;;;0.30;93.10;;;;;;5079962;28;20024;-66
2022/03/11 05:47:22;;;;;;;18.75;6.88;;;0.30;93.50;;;;;;5079772;28;20048;-66
2022/03/11 05:49:48;;;;;;;17.38;8.35;;;0.30;93.50;;;;;;5080647;28;20020;-66
2022/03/11 05:52:13;;;;;;;15.68;7.97;;;0.20;93.40;;;;;;5079591;28;20405;-66
2022/03/11 05:54:39;;;;;;;15.02;8.40;;;0.20;93.90;;;;;;5080560;28;20017;-66
2022/03/11 05:57:04;;;;;;;19.27;7.18;;;0.10;93.70;;;;;;5080340;28;20041;-66
2022/03/11 05:59:31;;;;;;;9.60;6.13;;;0.10;93.70;;;;;;5080486;28;20093;-65
2022/03/11 06:01:58;;;;;;;10.68;4.95;;;0.10;93.60;;;;;;5079881;28;20036;-66
2022/03/11 06:04:23;;;;;;;;;;;0.10;93.50;;;;;;5079613;28;20024;-66
2022/03/11 06:06:49;;;;;;;18.42;6.82;;;0.10;93.90;;;;;;5080032;28;19904;-65
2022/03/11 06:09:14;;;;;;;15.18;7.88;;;0.10;93.40;;;;;;5079350;28;20488;-66
2022/03/11 06:11:40;;;;;;;21.40;8.55;;;0.10;93.70;;;;;;5079720;28;20094;-65
2022/03/11 06:14:06;;;;;;;12.45;6.55;;;0.10;93.30;;;;;;5079241;28;20028;-66
2022/03/11 06:16:32;;;;;;;16.15;8.05;;;0.10;93.40;;;;;;5079696;28;20103;-66
2022/03/11 06:18:58;;;;;;;17.65;7.85;;;0.10;93.00;;;;;;5079655;28;20148;-65
2022/03/11 06:21:23;;;;;;;10.77;6.03;;;0.20;93.10;;;;;;5079190;28;20499;-66
2022/03/11 06:23:49;;;;;;;16.45;6.22;;;0.20;92.80;;;;;;5079236;28;20028;-66
2022/03/11 06:26:14;;;;;;;23.05;8.80;;;0.20;92.90;;;;;;5079953;28;20481;-66
2022/03/11 06:28:39;;;;;;;14.52;6.38;;;0.20;92.80;;;;;;5080240;28;20116;-66
2022/03/11 06:31:07;;;;;;;12.35;6.55;;;0.20;92.40;;;;;;5079885;28;20024;-65
2022/03/11 06:33:33;;;;;;;13.02;8.52;;;0.20;91.90;;;;;;5045385;28;20020;-66
2022/03/11 06:35:58;;;;;;;15.27;7.32;;;0.30;92.30;;;;;;5080026;28;20020;-66
2022/03/11 06:38:24;;;;;;;9.50;5.80;;;0.30;91.70;;;;;;5079521;28;20127;-66
2022/03/11 06:40:50;;;;;;;15.48;6.88;;;0.30;91.50;;;;;;5079731;28;20066;-66
2022/03/11 06:43:19;;;;;;;13.48;5.85;;;0.30;91.10;;;;;;5079138;28;20067;-66
2022/03/11 06:45:44;;;;;;;13.73;6.65;;;0.40;91.60;;;;;;5079387;28;20400;-66
2022/03/11 06:48:10;;;;;;;16.08;5.97;;;0.40;91.40;;;;;;5078593;28;20119;-68
2022/03/11 06:50:35;;;;;;;12.38;7.00;;;0.40;90.50;;;;;;5079698;28;20064;-68
2022/03/11 06:53:01;;;;;;;13.63;6.25;;;0.50;90.40;;;;;;5078990;28;20500;-66
2022/03/11 06:55:26;;;;;;;13.15;5.20;;;0.50;90.80;;;;;;5078556;28;20029;-67
2022/03/11 06:57:53;;;;;;;10.05;6.20;;;0.50;90.40;;;;;;5079398;28;20158;-66
2022/03/11 07:00:18;;;;;;;13.85;5.63;;;0.60;91.30;;;;;;5078732;28;20484;-66
2022/03/11 07:02:44;;;;;;;13.20;5.75;;;0.60;89.90;;;;;;5079073;28;20047;-66
2022/03/11 07:05:11;;;;;;;18.30;6.20;;;0.60;90.60;;;;;;5078450;28;20041;-66
2022/03/11 07:07:36;;;;;;;;;;;0.60;90.70;;;;;;5079523;28;20030;-66
2022/03/11 07:10:09;;;;;;;8.32;4.78;;;0.60;90.30;;;;;;5078446;28;19994;-66
2022/03/11 07:12:35;;;;;;;14.32;6.97;;;0.60;89.90;;;;;;5078354;28;20027;-66
2022/03/11 07:15:01;;;;;;;20.30;7.50;;;0.60;90.40;;;;;;5079063;28;20020;-66
2022/03/11 07:17:27;;;;;;;13.77;6.65;;;0.70;88.50;;;;;;5078218;28;20450;-66
2022/03/11 07:19:53;;;;;;;;;;;0.70;87.80;;;;;;5079223;28;20044;-66
2022/03/11 07:22:18;;;;;;;26.83;10.60;;;0.70;88.40;;;;;;5078055;28;19944;-66
2022/03/11 07:24:45;;;;;;;28.90;12.60;;;0.80;87.40;;;;;;5078719;28;20391;-66
2022/03/11 07:27:11;;;;;;;16.08;7.82;;;0.80;90.30;;;;;;5079592;28;20373;-66
2022/03/11 07:29:36;;;;;;;15.63;7.35;;;0.90;87.40;;;;;;5078951;28;20028;-66
2022/03/11 07:32:02;;;;;;;14.13;5.45;;;1.00;88.90;;;;;;5079060;28;20397;-67
2022/03/11 07:34:28;;;;;;;;;;;1.00;86.10;;;;;;5079391;28;20085;-66
2022/03/11 07:36:53;;;;;;;14.90;5.68;;;1.00;87.10;;;;;;5079335;28;19904;-67
2022/03/11 07:39:20;;;;;;;23.35;7.35;;;1.10;87.30;;;;;;5078737;28;20032;-66
2022/03/11 07:41:45;;;;;;;14.00;7.03;;;1.10;87.80;;;;;;5079124;28;20489;-66
2022/03/11 07:44:12;;;;;;;14.43;6.00;;;1.20;85.40;;;;;;5078589;28;20028;-66
2022/03/11 07:46:38;;;;;;;18.50;7.25;;;1.20;86.00;;;;;;5078875;28;20029;-67
2022/03/11 07:49:04;;;;;;;11.82;6.38;;;1.10;84.20;;;;;;5078077;28;20043;-67
2022/03/11 07:51:30;;;;;;;18.55;5.50;;;1.20;85.20;;;;;;5078736;28;20399;-67
2022/03/11 07:53:56;;;;;;;14.40;6.22;;;1.30;83.80;;;;;;5078708;28;20073;-67
2022/03/11 07:56:22;;;;;;;10.77;6.00;;;1.30;84.30;;;;;;5078427;28;20063;-67
2022/03/11 07:58:48;;;;;;;13.20;7.70;;;1.40;85.60;;;;;;5078993;28;20036;-66
2022/03/11 08:01:13;;;;;;;14.88;6.25;;;1.50;81.70;;;;;;5078114;28;20036;-66
2022/03/11 08:03:41;;;;;;;14.52;7.07;;;1.60;78.90;;;;;;5078549;28;20024;-66
2022/03/11 08:06:10;;;;;;;13.07;5.32;;;1.60;81.70;;;;;;5078033;28;20029;-67
2022/03/11 08:08:37;;;;;;;14.98;6.43;;;1.70;80.10;;;;;;5081587;28;20047;-66
2022/03/11 08:11:06;;;;;;;9.45;6.00;;;1.80;78.60;;;;;;5081527;28;20074;-67
2022/03/11 08:13:33;;;;;;;8.93;4.75;;;1.80;76.70;;;;;;5082012;28;20022;-67
2022/03/11 08:15:59;;;;;;;10.80;6.13;;;1.90;77.20;;;;;;5081282;28;20027;-66
2022/03/11 08:18:25;;;;;;;11.85;5.75;;;1.90;77.10;;;;;;5081252;28;20024;-67
2022/03/11 08:20:50;;;;;;;13.90;5.07;;;2.00;76.30;;;;;;5081258;28;20107;-66
2022/03/11 08:23:16;;;;;;;12.20;5.07;;;2.00;75.60;;;;;;5081182;28;20100;-67
2022/03/11 08:25:42;;;;;;;16.55;7.88;;;2.10;74.90;;;;;;5082042;28;20054;-67
2022/03/11 08:28:10;;;;;;;20.60;8.57;;;2.10;75.50;;;;;;5082004;28;20016;-66
2022/03/11 08:30:37;;;;;;;13.23;6.90;;;2.20;76.00;;;;;;5082246;28;20024;-67
2022/03/11 08:33:04;;;;;;;13.25;5.57;;;2.30;74.20;;;;;;5081364;28;20446;-69
2022/03/11 08:35:30;;;;;;;13.38;5.93;;;2.30;71.70;;;;;;5081983;28;20492;-68
2022/03/11 08:37:55;;;;;;;19.30;5.22;;;2.30;71.10;;;;;;5081947;28;20043;-68
2022/03/11 08:40:23;;;;;;;17.08;5.93;;;2.30;70.50;;;;;;5081548;28;20043;-67
2022/03/11 08:42:50;;;;;;;11.55;5.25;;;2.30;71.40;;;;;;5081434;28;20028;-67
2022/03/11 08:45:15;;;;;;;11.07;5.47;;;2.40;69.00;;;;;;5081428;28;20094;-68
2022/03/11 08:47:41;;;;;;;11.63;4.65;;;2.50;68.80;;;;;;5081940;28;20020;-68
2022/03/11 08:50:07;;;;;;;11.65;5.70;;;2.50;69.40;;;;;;5081646;28;20028;-67
2022/03/11 08:52:34;;;;;;;10.10;5.53;;;2.50;68.90;;;;;;5081440;28;20024;-67
2022/03/11 08:55:00;;;;;;;9.73;4.57;;;2.60;68.90;;;;;;5081535;28;20047;-68
2022/03/11 08:57:26;;;;;;;;;;;2.70;67.50;;;;;;5081164;28;20500;-68
2022/03/11 08:59:54;;;;;;;9.27;5.00;;;2.70;68.90;;;;;;5081329;28;20012;-68
2022/03/11 09:02:21;;;;;;;11.13;5.63;;;2.80;68.10;;;;;;5080570;28;20449;-68
2022/03/11 09:04:48;;;;;;;12.48;6.40;;;2.90;66.80;;;;;;5080669;28;20423;-67
2022/03/11 09:07:13;;;;;;;25.52;7.90;;;2.90;64.50;;;;;;5080384;28;20016;-68
2022/03/11 09:09:39;;;;;;;9.68;4.80;;;2.90;66.90;;;;;;5081125;28;20389;-68
2022/03/11 09:12:05;;;;;;;11.43;6.18;;;3.00;66.60;;;;;;5079789;28;20024;-68
2022/03/11 09:14:31;;;;;;;11.88;6.00;;;3.10;65.30;;;;;;5080838;28;20034;-68
2022/03/11 09:16:58;;;;;;;13.27;6.15;;;3.20;64.10;;;;;;5080418;28;20071;-68
2022/03/11 09:19:23;;;;;;;8.77;4.32;;;3.30;66.20;;;;;;5079042;28;20029;-68
2022/03/11 09:21:49;;;;;;;10.52;5.20;;;3.50;63.60;;;;;;5080802;28;20146;-68
2022/03/11 09:24:15;;;;;;;11.80;5.05;;;3.60;61.50;;;;;;5080333;28;20415;-68
2022/03/11 09:26:41;;;;;;;8.98;4.97;;;3.60;61.50;;;;;;5081684;28;20028;-68
2022/03/11 09:29:06;;;;;;;8.95;4.18;;;3.60;60.60;;;;;;5081367;28;20028;-68
2022/03/11 09:31:34;;;;;;;12.43;5.28;;;3.70;59.70;;;;;;5080769;28;20439;-67
2022/03/11 09:34:00;;;;;;;13.18;5.18;;;3.70;59.90;;;;;;5081121;28;20027;-68
2022/03/11 09:36:25;;;;;;;10.00;5.18;;;3.90;61.70;;;;;;5080588;28;20495;-67
2022/03/11 09:38:51;;;;;;;11.65;4.85;;;4.00;57.60;;;;;;5080964;28;20040;-67
2022/03/11 09:41:18;;;;;;;9.18;4.90;;;4.00;58.20;;;;;;5080588;28;20028;-68
2022/03/11 09:43:44;;;;;;;11.07;6.07;;;4.00;57.70;;;;;;5080512;28;20124;-68
2022/03/11 09:46:10;;;;;;;11.18;6.10;;;4.20;57.60;;;;;;5079949;28;20455;-68
2022/03/11 09:48:36;;;;;;;12.88;6.05;;;4.30;57.30;;;;;;5080607;28;20024;-68
2022/03/11 09:51:02;;;;;;;11.68;6.20;;;4.30;56.20;;;;;;5080710;28;20027;-68
2022/03/11 09:53:28;;;;;;;15.63;5.85;;;4.30;56.40;;;;;;5080273;28;20030;-68
2022/03/11 09:55:54;;;;;;;7.93;5.15;;;4.40;56.20;;;;;;5080573;28;20458;-68
2022/03/11 09:58:19;;;;;;;7.35;4.60;;;4.40;55.40;;;;;;5079381;28;20032;-67
2022/03/11 10:00:47;;;;;;;8.68;4.32;;;4.60;55.10;;;;;;5080177;28;20052;-68
2022/03/11 10:03:13;;;;;;;13.23;5.05;;;4.60;55.10;;;;;;5077766;28;20499;-68
2022/03/11 10:05:52;;;;;;;16.27;6.07;;;4.70;55.60;;;;;;5080044;28;20115;-68
2022/03/11 10:08:31;;;;;;;8.93;4.25;;;4.80;55.10;;;;;;5078726;28;20033;-68
2022/03/11 10:11:15;;;;;;;12.63;5.60;;;4.90;53.40;;;;;;5079456;28;20024;-68
2022/03/11 10:13:41;;;;;;;9.55;4.75;;;5.00;53.40;;;;;;5079181;28;20020;-68
2022/03/11 10:16:21;;;;;;;10.65;5.28;;;5.00;51.40;;;;;;5079266;28;20019;-68
2022/03/11 10:19:02;;;;;;;10.45;5.28;;;5.10;51.00;;;;;;5079799;28;20051;-68
2022/03/11 10:21:37;;;;;;;8.38;3.85;;;5.20;50.30;;;;;;5079351;28;20036;-68
2022/03/11 10:24:06;;;;;;;14.15;5.90;;;5.30;48.70;;;;;;5079672;28;20158;-68
2022/03/11 10:26:33;;;;;;;13.02;4.97;;;5.30;48.90;;;;;;5079963;28;20028;-68
2022/03/11 10:29:00;;;;;;;13.00;5.82;;;5.40;49.70;;;;;;5080129;28;20028;-68
2022/03/11 10:31:33;;;;;;;8.48;5.05;;;5.60;49.30;;;;;;5079342;28;20060;-68
2022/03/11 10:34:23;;;;;;;11.55;4.65;;;5.70;48.20;;;;;;5079933;28;20038;-68
2022/03/11 10:37:04;;;;;;;11.27;5.00;;;5.80;48.70;;;;;;5079614;28;20449;-68
2022/03/11 10:39:38;;;;;;;11.32;5.30;;;5.80;47.30;;;;;;5080007;28;20028;-68
2022/03/11 10:42:20;;;;;;;6.57;4.20;;;5.70;48.20;;;;;;5079372;28;20067;-68
2022/03/11 10:45:00;;;;;;;13.80;4.57;;;5.80;47.30;;;;;;5079561;28;20380;-68
2022/03/11 10:50:12;;;;;;;9.45;3.85;;;6.10;47.60;;;;;;5038774;28;20110;-74
2022/03/11 10:52:42;;;;;;;;;;;6.20;45.60;;;;;;5040184;28;20039;-74
2022/03/11 10:55:22;;;;;;;17.45;5.00;;;6.30;44.50;;;;;;5039472;28;19904;-74
2022/03/11 10:57:48;;;;;;;14.48;6.78;;;6.20;44.10;;;;;;5039854;28;20029;-73
2022/03/11 11:00:17;;;;;;;14.15;5.70;;;6.30;45.10;;;;;;5038532;28;20022;-73
2022/03/11 11:02:44;;;;;;;14.73;5.60;;;6.30;45.30;;;;;;5038953;28;20037;-74
2022/03/11 11:05:12;;;;;;;7.40;4.80;;;6.40;45.10;;;;;;5039059;28;20120;-74
2022/03/11 11:07:39;;;;;;;12.07;4.10;;;6.50;44.40;;;;;;5038962;28;20017;-73
2022/03/11 11:10:05;;;;;;;12.48;5.90;;;6.60;44.20;;;;;;5038554;28;20021;-74
2022/03/11 11:12:31;;;;;;;11.20;5.72;;;6.60;43.70;;;;;;5038656;28;20397;-74
2022/03/11 11:14:56;;;;;;;;;;;6.70;45.60;;;;;;5039180;28;20425;-74
2022/03/11 11:17:22;;;;;;;9.07;4.07;;;6.90;43.90;;;;;;5039208;28;19905;-74
2022/03/11 11:19:51;;;;;;;15.60;5.78;;;6.90;44.30;;;;;;5039618;28;20045;-74
2022/03/11 11:22:17;;;;;;;15.15;6.22;;;6.90;42.80;;;;;;5039200;28;20120;-74
2022/03/11 11:24:44;;;;;;;11.63;6.72;;;6.90;44.00;;;;;;5039319;28;20104;-74
2022/03/11 11:27:10;;;;;;;11.38;5.13;;;7.00;43.20;;;;;;5038851;28;20056;-74
2022/03/11 11:29:37;;;;;;;13.65;5.32;;;7.00;43.40;;;;;;5039223;28;20025;-75
2022/03/11 11:32:05;;;;;;;;;;;7.00;43.60;;;;;;5039625;28;20025;-74
2022/03/11 11:34:37;;;;;;;6.57;4.07;;;7.00;43.90;;;;;;5038773;28;19911;-74
2022/03/11 11:37:06;;;;;;;8.32;4.60;;;7.00;43.40;;;;;;5038918;28;20362;-74
2022/03/11 11:39:40;;;;;;;8.40;5.07;;;7.20;44.10;;;;;;5038561;28;20075;-74
2022/03/11 11:42:11;;;;;;;14.70;5.25;;;7.30;43.40;;;;;;5041138;28;20556;-74
2022/03/11 11:44:38;;;;;;;9.18;5.90;;;7.40;42.10;;;;;;5042687;28;20150;-74
2022/03/11 11:47:16;;;;;;;10.88;4.40;;;7.40;43.40;;;;;;5042670;28;20535;-74
2022/03/11 11:49:45;;;;;;;9.38;4.50;;;7.50;43.60;;;;;;5042516;28;20033;-74
2022/03/11 11:52:24;;;;;;;12.88;7.30;;;7.60;42.10;;;;;;5041881;28;20481;-75
2022/03/11 11:54:49;;;;;;;10.95;5.88;;;7.60;41.90;;;;;;5042573;28;20033;-74
2022/03/11 11:57:19;;;;;;;12.00;5.38;;;7.60;41.40;;;;;;5042144;28;20075;-74
2022/03/11 11:59:46;;;;;;;15.38;5.68;;;7.60;41.60;;;;;;5041959;28;20040;-74
2022/03/11 12:02:33;;;;;;;16.85;7.70;;;7.70;41.70;;;;;;5041646;28;20033;-74
2022/03/11 12:04:58;;;;;;;13.77;6.13;;;7.80;40.70;;;;;;5042381;28;20040;-74
2022/03/11 12:07:45;;;;;;;14.40;5.25;;;7.80;41.50;;;;;;5041413;28;20397;-74
2022/03/11 12:10:25;;;;;;;9.00;4.50;;;8.00;41.90;;;;;;5041775;28;20033;-75
2022/03/11 12:12:55;;;;;;;15.02;5.28;;;8.10;40.80;;;;;;5042184;28;20256;-75
2022/03/11 12:15:23;;;;;;;11.30;5.10;;;8.10;40.40;;;;;;5042101;28;20029;-74
2022/03/11 12:18:00;;;;;;;10.95;5.47;;;8.10;40.10;;;;;;5041753;28;20330;-75
2022/03/11 12:20:38;;;;;;;9.95;4.57;;;8.00;40.30;;;;;;5042300;28;20021;-74
2022/03/11 12:23:19;;;;;;;8.95;4.30;;;8.10;40.50;;;;;;5041698;28;20366;-75
2022/03/11 12:25:50;;;;;;;10.13;5.40;;;8.20;40.40;;;;;;5042107;28;20025;-75
2022/03/11 12:28:24;;;;;;;11.93;4.75;;;8.30;41.80;;;;;;5041615;28;20075;-75
2022/03/11 12:30:50;;;;;;;9.07;4.72;;;8.40;41.10;;;;;;5041763;28;20060;-74
2022/03/11 12:33:18;;;;;;;8.98;5.18;;;8.40;40.80;;;;;;5042058;28;20535;-75
2022/03/11 12:35:45;;;;;;;11.63;4.47;;;8.50;39.50;;;;;;5041386;28;20478;-75
2022/03/11 12:38:18;;;;;;;14.50;6.15;;;8.40;39.80;;;;;;5041479;28;20045;-75
2022/03/11 12:40:45;;;;;;;11.45;5.72;;;8.50;39.50;;;;;;5041180;28;20030;-75
2022/03/11 12:43:12;;;;;;;8.20;4.03;;;8.50;40.00;;;;;;5041036;28;20025;-74
2022/03/11 12:45:46;;;;;;;10.05;5.22;;;8.50;39.00;;;;;;5041086;28;20025;-75
2022/03/11 12:48:15;;;;;;;15.25;4.85;;;8.50;39.00;;;;;;5040971;28;20083;-75
2022/03/11 12:50:41;;;;;;;10.77;4.57;;;8.40;39.20;;;;;;5041527;28;20028;-75
2022/03/11 12:53:09;;;;;;;12.65;6.28;;;8.50;40.10;;;;;;5040575;28;20026;-75
2022/03/11 12:55:37;;;;;;;11.85;5.20;;;8.60;39.80;;;;;;5040840;28;20017;-74